Detall de PIREP

Printer-friendly versionPDF version

[2010/06/30 17:12:00]
Flight IATA:CT0001
Pilot Number:042
Company ICAO:CAT
Aircraft Type:F50/A
PAX:2
Aircraft Registration:PAOB
Departing Airport: LEIB
Destination Airport: LEMH
Alternate Airport:LEPA
Online: No
Route:VOICE CATALONIAN/TEST F50
Flight Level:FL100
No Slew and time accel
No pause
Crash detect
Detect pilot in Cockpit between each 30 and 45 minutes
17:12 Zero fuel Weight: 35102 Lbs, Fuel Weight: 9089 Lbs
17:12 VATSIM:LEIB 301700Z 22004KT 170V260 CAVOK 29/19 Q1017 NOSIG
17:12 VATSIM:LEMH 301700Z 24006KT 200V280 9999 FEW035 26/20 Q1018
17:12 VOICE CATALONIAN
17:29 Parking Brakes off
17:34 Take-off
17:34 Take off Weight: 44062 Lbs
17:34 Wind: 203 @ 004 Knots Heading: 240
17:34 POS N38 52 25 E001 22 32
17:34 Gear Up: 104 Knots
17:34 Flaps:2 at 104 Knots
17:34 Flaps:1 at 94 Knots
17:35 Flaps:0 at 105 Knots
17:39 TOC
17:39 Fuel Weight: 8708 Lb

17:49 Wind:194@005 Knots Heading: 061 Ground Speed: 256 Knots Altitude 9898 ft
18:00 TOD
18:00 Fuel Weight: 8025 Lb
18:04 Wind:268@004 Knots Heading: 049 Ground Speed: 189 Knots Altitude 5997 ft
18:19 Wind:256@006 Knots Heading: 094 Ground Speed: 189 Knots Altitude 2929 ft
18:19 Flaps:1 at 175 Knots
18:22 Flaps:2 at 130 Knots
18:22 Gear Down: 127 Knots
18:23 Flaps:3 at 126 Knots
18:26 TouchDown:Rate -805 ft/min Speed: 117 Knots
18:27 VATSIM:LEMH 301800Z 25006KT 210V290 CAVOK 26/18 Q1018
18:27 Land
18:27 Wind:250@006 Knots
18:27 Heading: 008
18:27 Flight Duration: 00:53
18:27 Landing Weight: 42598 Lbs
18:27 POS N39 51 44 E004 13 06
18:29 Parking brakes on
18:29 Block to Block Duration: 01:00
18:29 Final Fuel: 7460 Lbls
18:29 Spent Fuel: 1629 Lbls
18:29 Flight Length: 179 NM
18:29 TOD Land Length: 81 NM

Exportar CSV

Powered by Drupal - Modified by Danger4k